Time;durP1;ratioP1;P1;durP2;ratioP2;P2;SDS_P1;SDS_P2;PMS_P1;PMS_P2;Temp;Humidity;BMP_temperature;BMP_pressure;BME280_temperature;BME280_humidity;BME280_pressure;Samples;Min_cycle;Max_cycle;Signal;HPM_P1;HPM_P2
2023/07/31 00:02:19;;;;;;;10.27;6.77;;;;;;;27.35;78.40;99719.69;30879740;28;20464;-76
2023/07/31 00:17:22;;;;;;;7.87;5.67;;;;;;;27.23;79.52;99715.66;30872246;28;20102;-76
2023/07/31 00:32:23;;;;;;;10.15;6.10;;;;;;;27.31;80.42;99722.06;30872009;28;20059;-78
2023/07/31 00:47:26;;;;;;;6.27;4.83;;;;;;;27.53;78.42;99704.03;30875311;28;20047;-76
2023/07/31 01:02:28;;;;;;;7.10;4.80;;;;;;;27.59;76.31;99715.06;30870072;28;20389;-75
2023/07/31 01:17:31;;;;;;;10.83;5.40;;;;;;;27.47;76.60;99718.09;30867152;28;20133;-74
2023/07/31 01:32:34;;;;;;;9.23;5.80;;;;;;;27.36;77.82;99704.47;30872514;28;20141;-77
2023/07/31 01:47:36;;;;;;;10.05;6.05;;;;;;;27.22;79.74;99697.44;30866867;28;20509;-77
2023/07/31 02:02:38;;;;;;;8.05;5.70;;;;;;;27.13;84.29;99714.66;30860105;28;20118;-78
2023/07/31 02:17:40;;;;;;;10.47;6.37;;;;;;;27.00;88.05;99715.44;30862872;28;20043;-75
2023/07/31 02:32:42;;;;;;;9.95;7.20;;;;;;;26.73;93.34;99706.41;30857958;28;20059;-75
2023/07/31 02:47:44;;;;;;;11.02;6.80;;;;;;;26.68;96.57;99696.16;30859942;28;20055;-77
2023/07/31 03:02:46;;;;;;;11.40;8.27;;;;;;;26.97;97.55;99704.63;30858205;28;20051;-76
2023/07/31 03:17:48;;;;;;;12.73;8.67;;;;;;;27.17;100.00;99701.09;30856781;28;20497;-76
2023/07/31 03:32:50;;;;;;;16.03;8.63;;;;;;;27.16;100.00;99691.28;30867729;28;20059;-74
2023/07/31 03:47:54;;;;;;;15.98;8.95;;;;;;;27.20;100.00;99683.31;30878542;28;20054;-76
2023/07/31 04:02:56;;;;;;;11.43;8.50;;;;;;;27.58;100.00;99694.06;30876000;28;20055;-75
2023/07/31 04:17:58;;;;;;;12.27;8.50;;;;;;;28.42;94.65;99706.47;30874582;28;20050;-75
2023/07/31 04:33:00;;;;;;;19.17;8.63;;;;;;;29.07;93.54;99701.47;30873482;28;20493;-76
2023/07/31 04:48:02;;;;;;;10.10;7.53;;;;;;;29.80;90.61;99708.22;30865745;28;20047;-77
2023/07/31 05:03:04;;;;;;;9.95;5.97;;;;;;;30.39;86.05;99727.53;30870569;28;20055;-76
2023/07/31 05:18:07;;;;;;;9.15;6.53;;;;;;;30.82;84.92;99732.03;30869545;28;20047;-75
2023/07/31 05:33:09;;;;;;;7.82;5.57;;;;;;;31.65;81.19;99732.78;30863403;28;20446;-75
2023/07/31 05:48:15;;;;;;;8.43;4.07;;;;;;;32.62;74.91;99735.13;30867129;28;20047;-76
2023/07/31 06:03:17;;;;;;;9.02;4.53;;;;;;;32.86;72.60;99739.91;30861420;28;20058;-76
2023/07/31 06:18:19;;;;;;;6.13;4.60;;;;;;;33.07;70.40;99733.06;30864739;28;20057;-75
2023/07/31 06:33:25;;;;;;;7.38;4.75;;;;;;;33.47;66.70;99750.28;30868573;28;20089;-78
2023/07/31 06:48:30;;;;;;;10.07;4.93;;;;;;;33.88;67.04;99751.28;30866972;28;20496;-75
2023/07/31 07:03:32;;;;;;;7.10;5.00;;;;;;;34.73;65.07;99739.13;30857236;28;20074;-77
2023/07/31 07:18:34;;;;;;;5.50;4.20;;;;;;;35.57;60.03;99751.34;30882697;28;20061;-76
2023/07/31 07:33:40;;;;;;;5.97;4.30;;;;;;;35.54;59.58;99750.47;30880126;28;20081;-75
2023/07/31 07:48:41;;;;;;;4.13;3.25;;;;;;;35.79;57.50;99736.69;30876211;28;20129;-75
2023/07/31 08:03:43;;;;;;;3.92;3.08;;;;;;;36.51;52.54;99762.63;30877131;28;20537;-76
2023/07/31 08:18:46;;;;;;;4.82;2.80;;;;;;;37.61;51.31;99751.72;30867396;28;20467;-75
2023/07/31 08:33:48;;;;;;;4.10;3.25;;;;;;;37.90;47.50;99737.91;30872675;28;20053;-79
2023/07/31 08:48:52;;;;;;;3.70;2.60;;;;;;;38.91;45.84;99736.50;30872521;28;20054;-76
2023/07/31 09:03:55;;;;;;;8.82;4.80;;;;;;;39.12;44.19;99727.72;30867490;28;20067;-76
2023/07/31 09:18:58;;;;;;;4.55;2.28;;;;;;;39.45;42.09;99719.53;30861101;28;20043;-76
2023/07/31 09:34:00;;;;;;;4.90;2.50;;;;;;;39.77;40.02;99714.06;30858038;28;20050;-75
2023/07/31 09:49:10;;;;;;;5.05;2.20;;;;;;;40.53;39.46;99722.06;30861875;28;20055;-75
2023/07/31 10:04:14;;;;;;;5.88;2.85;;;;;;;40.81;39.37;99712.03;30862171;28;20056;-78
2023/07/31 10:19:17;;;;;;;6.95;2.50;;;;;;;41.38;37.88;99708.88;30856510;28;20469;-76
2023/07/31 10:34:19;;;;;;;2.90;1.92;;;;;;;41.55;35.54;99705.34;30862062;28;20165;-78
2023/07/31 10:49:21;;;;;;;4.07;2.70;;;;;;;41.97;34.98;99691.44;30895503;28;20070;-76
2023/07/31 11:04:25;;;;;;;4.07;2.03;;;;;;;42.61;34.16;99686.09;30900444;28;20138;-77
2023/07/31 11:19:28;;;;;;;3.85;1.95;;;;;;;42.12;33.37;99672.78;30896853;28;20191;-76
2023/07/31 11:34:30;;;;;;;2.85;1.90;;;;;;;40.61;35.16;99665.56;30896666;28;20077;-75
2023/07/31 11:49:32;;;;;;;4.78;2.08;;;;;;;39.06;35.90;99656.44;30895183;28;20045;-78
2023/07/31 12:04:38;;;;;;;3.38;2.10;;;;;;;37.78;36.81;99649.41;30875843;28;20042;-76
2023/07/31 12:19:40;;;;;;;9.18;2.15;;;;;;;37.30;37.67;99633.88;30872663;28;20129;-77
2023/07/31 12:34:43;;;;;;;2.28;1.58;;;;;;;36.76;36.90;99640.50;30869077;28;20085;-75
2023/07/31 12:49:45;;;;;;;6.10;2.00;;;;;;;36.50;37.04;99624.72;30865743;28;20150;-76
2023/07/31 13:04:47;;;;;;;3.35;1.88;;;;;;;36.35;37.33;99628.03;30869018;28;20405;-81
2023/07/31 13:19:49;;;;;;;2.67;1.63;;;;;;;36.23;37.16;99625.13;30870840;28;20569;-76
2023/07/31 13:34:51;;;;;;;3.67;2.53;;;;;;;36.34;37.90;99627.28;30860625;28;20101;-74
2023/07/31 13:49:53;;;;;;;2.45;2.03;;;;;;;36.19;37.61;99622.78;30866055;28;20134;-77
2023/07/31 14:04:55;;;;;;;2.60;1.95;;;;;;;35.96;38.08;99608.59;30863182;28;20093;-76
2023/07/31 14:19:57;;;;;;;2.83;1.98;;;;;;;35.75;37.73;99605.78;30859232;28;20775;-77
2023/07/31 14:35:00;;;;;;;2.47;1.90;;;;;;;35.68;38.32;99601.06;30862228;28;20138;-77
2023/07/31 14:50:03;;;;;;;3.03;2.20;;;;;;;35.62;38.32;99597.88;30859388;28;20038;-76
2023/07/31 15:05:06;;;;;;;3.53;2.90;;;;;;;35.47;39.76;99590.53;30857003;28;20050;-76
2023/07/31 15:20:10;;;;;;;6.28;3.17;;;;;;;35.27;40.87;99592.00;30856549;28;20047;-75
2023/07/31 15:35:12;;;;;;;5.30;2.60;;;;;;;35.01;41.96;99588.16;30871134;28;20101;-77
2023/07/31 15:50:13;;;;;;;10.70;4.00;;;;;;;34.75;42.85;99578.59;30876959;28;20133;-77
2023/07/31 16:05:15;;;;;;;5.47;2.97;;;;;;;34.83;43.08;99585.56;30874424;28;20480;-78
2023/07/31 16:20:18;;;;;;;5.60;3.25;;;;;;;34.66;43.97;99588.59;30870094;28;20077;-77
2023/07/31 16:35:20;;;;;;;5.45;3.22;;;;;;;34.54;44.22;99588.47;30869687;28;20054;-76
2023/07/31 16:50:22;;;;;;;3.30;2.60;;;;;;;34.39;44.35;99605.00;30870227;28;20073;-76
2023/07/31 17:05:25;;;;;;;4.90;2.60;;;;;;;34.09;45.33;99614.81;30873701;28;20070;-77
2023/07/31 17:20:27;;;;;;;4.88;2.65;;;;;;;33.98;46.11;99613.34;30866078;28;20043;-77
2023/07/31 17:35:29;;;;;;;8.05;3.00;;;;;;;33.79;46.50;99635.84;30862407;28;20093;-76
2023/07/31 17:50:32;;;;;;;5.88;2.70;;;;;;;33.71;46.43;99640.88;30863610;28;20130;-75
2023/07/31 18:05:37;;;;;;;4.18;2.70;;;;;;;33.54;46.03;99642.47;30863125;28;20093;-75
2023/07/31 18:20:39;;;;;;;5.40;2.65;;;;;;;33.26;46.61;99660.06;30864556;28;20050;-77
2023/07/31 18:35:41;;;;;;;4.60;2.60;;;;;;;33.20;45.92;99663.13;30861110;28;20432;-77
2023/07/31 18:50:43;;;;;;;4.97;3.08;;;;;;;33.15;45.98;99671.81;30862433;28;20493;-78
2023/07/31 19:05:45;;;;;;;4.72;3.30;;;;;;;32.64;47.82;99681.91;30865625;28;20078;-77
2023/07/31 19:20:47;;;;;;;10.40;5.28;;;;;;;31.81;54.77;99683.66;30873612;28;20050;-76
2023/07/31 19:35:57;;;;;;;6.97;3.42;;;;;;;31.27;62.04;99697.38;30880019;28;20093;-78
2023/07/31 19:50:59;;;;;;;3.88;3.42;;;;;;;30.75;63.47;99688.72;30872565;28;20083;-75
2023/07/31 20:06:01;;;;;;;4.15;3.03;;;;;;;30.65;62.84;99682.25;30871305;28;20047;-76
2023/07/31 20:21:03;;;;;;;3.50;2.83;;;;;;;30.86;61.88;99671.47;30872609;28;20481;-77
2023/07/31 20:36:07;;;;;;;3.85;3.00;;;;;;;31.06;60.49;99669.66;30872043;28;20054;-77
2023/07/31 20:51:09;;;;;;;8.00;4.22;;;;;;;30.84;69.23;99688.09;30867753;28;20065;-76
2023/07/31 21:06:12;;;;;;;5.78;4.38;;;;;;;30.52;73.49;99693.66;30868985;28;20146;-76
2023/07/31 21:21:14;;;;;;;8.13;4.35;;;;;;;30.51;75.99;99675.38;30867810;28;20549;-77
2023/07/31 21:36:16;;;;;;;7.28;4.90;;;;;;;30.46;77.29;99681.94;30867299;28;20051;-76
2023/07/31 21:51:18;;;;;;;8.02;4.47;;;;;;;30.65;75.97;99673.84;30865603;28;20046;-76
2023/07/31 22:06:21;;;;;;;6.88;3.97;;;;;;;30.57;75.65;99663.97;30870014;28;20078;-78
2023/07/31 22:21:23;;;;;;;5.00;3.63;;;;;;;30.57;75.85;99652.78;30866162;28;20085;-79
2023/07/31 22:36:25;;;;;;;5.05;4.15;;;;;;;30.32;78.54;99649.88;30867619;28;20509;-78
2023/07/31 22:51:26;;;;;;;9.25;4.78;;;;;;;30.18;80.92;99636.16;30872835;28;20046;-80
2023/07/31 23:06:30;;;;;;;9.40;6.93;;;;;;;30.01;87.15;99626.88;30866168;28;20065;-81
2023/07/31 23:21:32;;;;;;;10.98;7.18;;;;;;;29.60;98.67;99608.50;30869334;28;20074;-79
2023/07/31 23:36:34;;;;;;;10.30;6.65;;;;;;;29.47;100.00;99596.22;30866032;28;20098;-81
2023/07/31 23:51:36;;;;;;;9.33;6.77;;;;;;;29.36;100.00;99593.78;30879643;28;20050;-79
